CYTS

Timmins Airport

Timmins, , Canada
METAR CYTS 160600Z 18002KT 15SM SKC 07/07 A3003 RMK SLP177
Observed Flight Rules
Aug-16 @ 06:00 UTC (16 minutes ago) Visual Flight Rules
Wind Visibility Clouds
180° at 2 knots 15 miles
  • Clear skies
Temperatures Readings
Current 7°C / 45°F
Dewpoint 7°C / 45°F
Humidity 100%
Altimeter 30.03" Hg
Pressure 1017.7 hPa
Elevation 295
METAR CYTS 160600Z 18002KT 15SM SKC 07/07 A3003 RMK SLP177
Observed Flight Rules
Aug-16 @ 06:00 UTC
(16 minutes ago)
VFR
Wind Visibility
180° at 2 knots 15 miles
Clouds
  • Clear skies
Temperature Dewpoint
7°C / 45°F 7°C / 45°F
Humidity Altimeter Pressure
100% 30.03" Hg 1017.7 hPa